• Join FlightAware (Why Join?)
  • Login
  • US Flag 
01:43AM EDT


 

Airport Tracker/Info


-or-


 

Live Flight TrackerFlight Track Log ✈ N607AH ✈ 24-Apr-2013 ✈ KBED - KHYA

Flight Track Log - Related Links

Times and Time Zones

All times are in EDT time to prevent confusion due to time zone crossing. See the N607AH flight status page for this flight to view local times or setup timezone preferences in your user account.

Time Position Orientation Groundspeed Altitude Reporting Facility
EDT Latitude Longitude Course Direction KTS MPH feet Rate Location/Type
10:38AM 42.4667 -71.3000 270° West 111 128 900  Level KA90
10:38AM 42.4667 -71.3167 270° West 152 175 1,500 1,740 Climbing KA90
10:39AM 42.4167 -71.3500 206° Southwest 193 222 3,200 1,560 Climbing KA90
10:40AM 42.3667 -71.3500 180° South 189 217 4,700 900 Climbing KA90
10:41AM 42.3167 -71.3500 180° South 232 267 5,000 120 Climbing KA90
10:42AM 42.2500 -71.3333 170° South 250 288 5,000  Level KA90
10:43AM 42.1833 -71.2833 151° Southeast 261 300 5,000  Level KA90
10:44AM 42.1333 -71.2167 135° Southeast 263 303 5,000  Level KA90
10:46AM 42.1036 -71.1558 123° Southeast  Level Estimated
10:53AM 41.9165 -70.7756 123° Southeast  Level Estimated
10:54AM 41.8897 -70.7215 124° Southeast  Level Estimated
10:55AM 41.8629 -70.6674 124° Southeast  Level Estimated
10:56AM 41.8360 -70.6134 124° Southeast  Level Estimated
10:57AM 41.8091 -70.5594 124° Southeast  Level Estimated
10:58AM 41.7822 -70.5054 124° Southeast  Level Estimated
10:59AM 41.7552 -70.4515 124° Southeast  Level Estimated
11:00AM 41.7282 -70.3977 124° Southeast  Level Estimated
11:01AM 41.7012 -70.3438 124° Southeast  Level Estimated
11:02AM 41.6742 -70.2901 124° Southeast  Level Estimated
11:03AM 41.6693 -70.2804 124° Southeast  Level Estimated
11:04AM 41.6693 -70.2804 346° North  Level Estimated
11:05AM 41.6693 -70.2804 346° North  Level Estimated
11:06AM 41.6693 -70.2804 346° North  Level Estimated
11:07AM 41.6693 -70.2804 346° North  Level Estimated
11:08AM 41.6693 -70.2804 346° North  Level Estimated
11:09AM 41.6693 -70.2804 346° North  Level Estimated
11:10AM 41.6693 -70.2804 346° North  Level Estimated